createdAt,value
2018-01-15T00:00:34.031Z,1.00
2018-01-15T00:03:00.418Z,1.00
2018-01-15T00:05:27.545Z,1.10
2018-01-15T00:07:54.727Z,1.00
2018-01-15T00:10:21.142Z,1.00
2018-01-15T00:12:47.554Z,1.00
2018-01-15T00:15:13.933Z,0.90
2018-01-15T00:17:40.478Z,1.00
2018-01-15T00:20:07.321Z,1.10
2018-01-15T00:22:33.764Z,1.00
2018-01-15T00:25:00.210Z,0.70
2018-01-15T00:27:28.149Z,1.00
2018-01-15T00:29:54.548Z,1.00
2018-01-15T00:32:20.975Z,1.10
2018-01-15T00:34:48.358Z,1.30
2018-01-15T00:37:15.580Z,1.20
2018-01-15T00:39:42.018Z,1.20
2018-01-15T00:42:08.484Z,1.20
2018-01-15T00:44:34.903Z,1.20
2018-01-15T00:47:01.323Z,1.20
2018-01-15T00:49:28.492Z,1.30
2018-01-15T00:51:55.646Z,1.20
2018-01-15T00:54:22.816Z,1.20
2018-01-15T00:56:49.942Z,1.20
2018-01-15T00:59:16.773Z,1.20
2018-01-15T01:01:43.589Z,1.20
2018-01-15T01:04:10.761Z,1.10
2018-01-15T01:06:37.200Z,1.10
2018-01-15T01:09:04.514Z,1.10
2018-01-15T01:11:31.698Z,1.10
2018-01-15T01:13:58.119Z,1.10
2018-01-15T01:16:24.578Z,1.10
2018-01-15T01:18:51.785Z,1.20
2018-01-15T01:21:18.250Z,1.20
2018-01-15T01:23:44.709Z,1.20
2018-01-15T01:26:11.469Z,1.40
2018-01-15T01:28:37.889Z,1.50
2018-01-15T01:31:04.381Z,1.60
2018-01-15T01:33:30.801Z,1.70
2018-01-15T01:35:57.507Z,1.80
2018-01-15T01:38:23.994Z,1.80
2018-01-15T01:40:50.415Z,1.90
2018-01-15T01:43:16.893Z,1.90
2018-01-15T01:45:43.310Z,1.90
2018-01-15T01:48:09.766Z,2.00
2018-01-15T01:50:36.190Z,2.00
2018-01-15T01:53:02.879Z,2.00
2018-01-15T01:55:29.311Z,2.10
2018-01-15T01:57:55.823Z,2.10
2018-01-15T02:00:22.260Z,2.10
2018-01-15T02:02:48.670Z,2.10
2018-01-15T02:05:15.101Z,2.10
2018-01-15T02:07:41.522Z,2.10
2018-01-15T02:10:07.992Z,2.10
2018-01-15T02:12:34.437Z,2.10
2018-01-15T02:15:00.915Z,2.10
2018-01-15T02:17:27.414Z,2.20
2018-01-15T02:19:53.938Z,2.20
2018-01-15T02:22:20.345Z,2.30
2018-01-15T02:24:46.825Z,2.30
2018-01-15T02:27:13.334Z,2.20
2018-01-15T02:29:39.770Z,2.20
2018-01-15T02:32:07.205Z,2.20
2018-01-15T02:34:33.634Z,2.30
2018-01-15T02:37:00.793Z,2.30
2018-01-15T02:39:27.310Z,2.30
2018-01-15T02:41:53.767Z,2.30
2018-01-15T02:44:20.938Z,2.30
2018-01-15T02:46:47.431Z,2.30
2018-01-15T02:49:13.863Z,2.40
2018-01-15T02:51:40.281Z,2.40
2018-01-15T02:54:07.645Z,2.30
2018-01-15T02:56:34.802Z,2.30
2018-01-15T02:59:01.230Z,2.00
2018-01-15T03:01:28.409Z,2.30
2018-01-15T03:03:55.589Z,2.30
2018-01-15T03:06:22.046Z,2.30
2018-01-15T03:08:50.150Z,2.20
2018-01-15T03:11:16.551Z,2.20
2018-01-15T03:13:42.961Z,2.30
2018-01-15T03:16:10.151Z,2.30
2018-01-15T03:18:37.326Z,2.40
2018-01-15T03:21:04.217Z,2.30
2018-01-15T03:23:31.460Z,2.40
2018-01-15T03:25:57.910Z,2.40
2018-01-15T03:28:24.287Z,2.40
2018-01-15T03:30:50.793Z,2.40
2018-01-15T03:33:17.269Z,2.40
2018-01-15T03:35:43.689Z,2.40
2018-01-15T03:38:10.110Z,2.40
2018-01-15T03:40:36.525Z,2.40
2018-01-15T03:43:03.274Z,2.50
2018-01-15T03:45:29.802Z,2.50
2018-01-15T03:47:57.002Z,2.60
2018-01-15T03:50:23.442Z,2.50
2018-01-15T03:52:49.877Z,2.60
2018-01-15T03:55:17.046Z,2.60
2018-01-15T03:57:44.193Z,2.70
2018-01-15T04:00:10.721Z,2.60
2018-01-15T04:02:37.938Z,2.60
2018-01-15T04:05:05.760Z,2.60
2018-01-15T04:07:32.270Z,2.60
2018-01-15T04:09:58.701Z,2.60
2018-01-15T04:12:25.877Z,2.70
2018-01-15T04:14:52.298Z,2.70
2018-01-15T04:17:19.540Z,2.70
2018-01-15T04:19:46.783Z,2.70
2018-01-15T04:22:14.713Z,2.70
2018-01-15T04:24:41.883Z,2.80
2018-01-15T04:27:08.310Z,2.80
2018-01-15T04:29:35.488Z,2.80
2018-01-15T04:32:02.389Z,2.80
2018-01-15T04:34:29.503Z,2.80
2018-01-15T04:36:56.082Z,2.90
2018-01-15T04:39:22.445Z,2.90
2018-01-15T04:41:48.874Z,2.90
2018-01-15T04:44:15.692Z,2.90
2018-01-15T04:46:42.290Z,3.30
2018-01-15T04:49:09.242Z,3.00
2018-01-15T04:51:36.667Z,3.00
2018-01-15T04:54:03.773Z,2.90
2018-01-15T04:56:30.409Z,2.90
2018-01-15T04:58:56.841Z,2.90
2018-01-15T05:01:23.332Z,3.00
2018-01-15T05:03:49.825Z,3.00
2018-01-15T05:06:16.280Z,3.00
2018-01-15T05:08:42.712Z,3.00
2018-01-15T05:11:09.223Z,3.00
2018-01-15T05:13:35.632Z,2.90
2018-01-15T05:16:02.186Z,3.00
2018-01-15T05:18:28.758Z,3.00
2018-01-15T05:20:55.991Z,3.10
2018-01-15T05:23:23.031Z,3.00
2018-01-15T05:25:49.465Z,3.10
2018-01-15T05:28:16.150Z,3.20
2018-01-15T05:30:42.594Z,3.10
2018-01-15T05:33:09.817Z,3.10
2018-01-15T05:35:36.775Z,3.10
2018-01-15T05:38:03.877Z,3.10
2018-01-15T05:40:30.560Z,3.10
2018-01-15T05:42:57.808Z,3.30
2018-01-15T05:45:24.413Z,3.20
2018-01-15T06:24:42.424Z,2.10
2018-01-15T06:27:08.860Z,2.00
2018-01-15T06:29:36.051Z,2.00
2018-01-15T06:32:04.047Z,2.00
2018-01-15T06:34:30.514Z,2.00
2018-01-15T06:36:57.111Z,2.30
2018-01-15T06:39:25.039Z,1.90
2018-01-15T06:41:51.518Z,1.90
2018-01-15T06:44:18.082Z,1.90
2018-01-15T06:46:44.575Z,1.80
2018-01-15T06:49:11.058Z,1.70
2018-01-15T06:51:39.085Z,1.60
2018-01-15T06:54:07.034Z,1.60
2018-01-15T06:56:34.334Z,1.60
2018-01-15T06:59:01.761Z,1.50
2018-01-15T07:01:28.731Z,1.50
2018-01-15T07:03:55.398Z,1.40
2018-01-15T07:06:24.111Z,1.40
2018-01-15T07:08:50.825Z,1.40
2018-01-15T07:11:17.627Z,1.40
2018-01-15T07:13:45.166Z,1.30
2018-01-15T07:16:12.716Z,1.30
2018-01-15T07:18:40.529Z,1.30
2018-01-15T07:21:07.361Z,1.40
2018-01-15T07:23:52.538Z,1.30
2018-01-15T07:26:19.132Z,1.30
2018-01-15T07:28:46.520Z,1.20
2018-01-15T07:31:13.160Z,1.30
2018-01-15T07:33:40.700Z,1.30
2018-01-15T07:36:07.991Z,1.30
2018-01-15T07:38:34.638Z,1.40
2018-01-15T07:41:01.401Z,1.40
2018-01-15T07:43:28.759Z,1.50
2018-01-15T07:45:55.290Z,1.50
2018-01-15T07:48:22.772Z,1.60
2018-01-15T07:50:49.718Z,1.60
2018-01-15T07:53:16.303Z,1.60
2018-01-15T07:55:43.045Z,1.70
2018-01-15T07:58:10.472Z,1.70
2018-01-15T08:00:38.040Z,1.70
2018-01-15T08:03:05.102Z,1.70
2018-01-15T08:05:31.702Z,1.90
2018-01-15T08:07:58.281Z,1.90
2018-01-15T08:10:25.026Z,1.90
2018-01-15T08:12:51.579Z,1.90
2018-01-15T08:15:19.017Z,2.00
2018-01-15T08:17:45.647Z,2.00
2018-01-15T08:20:12.333Z,2.00
2018-01-15T08:22:38.977Z,2.10
2018-01-15T08:25:06.906Z,2.10
2018-01-15T08:27:33.558Z,2.10
2018-01-15T08:30:00.237Z,2.20
2018-01-15T08:32:26.798Z,2.20
2018-01-15T08:34:53.796Z,2.20
2018-01-15T08:37:20.382Z,2.30
2018-01-15T08:39:47.030Z,2.50
2018-01-15T08:42:14.349Z,2.50
2018-01-15T08:44:41.013Z,2.50
2018-01-15T08:47:07.562Z,2.60
2018-01-15T08:49:34.184Z,1.90
2018-01-15T08:52:01.507Z,2.90
2018-01-15T08:54:28.099Z,2.90
2018-01-15T08:56:55.123Z,3.00
2018-01-15T08:59:21.777Z,3.10
2018-01-15T09:01:55.221Z,3.20
2018-01-15T09:04:21.815Z,3.10
2018-01-15T09:06:48.474Z,3.40
2018-01-15T09:09:15.000Z,3.50
2018-01-15T09:11:41.916Z,3.60
2018-01-15T09:14:08.466Z,3.60
2018-01-15T09:16:35.088Z,3.70
2018-01-15T09:19:01.618Z,3.70
2018-01-15T09:21:28.540Z,3.90
2018-01-15T09:23:55.692Z,4.00
2018-01-15T09:26:23.171Z,4.20
2018-01-15T09:28:50.674Z,4.30
2018-01-15T09:31:18.160Z,4.40
2018-01-15T09:33:44.814Z,4.40
2018-01-15T09:36:12.251Z,4.70
2018-01-15T09:38:38.977Z,4.70
2018-01-15T09:41:05.608Z,5.00
2018-01-15T09:43:32.093Z,5.10
2018-01-15T09:45:58.717Z,5.30
2018-01-15T09:48:26.879Z,5.40
2018-01-15T09:50:53.470Z,5.40
2018-01-15T09:53:20.104Z,5.60
2018-01-15T09:55:46.789Z,5.40
2018-01-15T09:58:13.365Z,5.40
2018-01-15T10:00:39.937Z,5.40
2018-01-15T10:03:07.290Z,5.30
2018-01-15T10:05:33.989Z,5.30
2018-01-15T10:08:00.634Z,5.30
2018-01-15T10:10:27.144Z,5.30
2018-01-15T10:12:55.161Z,5.30
2018-01-15T10:15:21.675Z,5.40
2018-01-15T10:17:48.146Z,5.40
2018-01-15T10:20:14.715Z,5.50
2018-01-15T10:22:41.353Z,5.50
2018-01-15T10:25:08.033Z,5.60
2018-01-15T10:27:34.670Z,5.60
2018-01-15T10:30:01.431Z,5.60
2018-01-15T10:32:28.723Z,5.70
2018-01-15T10:34:55.181Z,5.60
2018-01-15T10:37:22.577Z,6.10
2018-01-15T10:39:49.277Z,6.10
2018-01-15T10:42:15.895Z,6.30
2018-01-15T10:44:42.550Z,6.50
2018-01-15T10:47:09.123Z,6.80
2018-01-15T10:49:35.776Z,7.00
2018-01-15T10:52:03.571Z,7.30
2018-01-15T10:54:30.902Z,7.40
2018-01-15T10:56:57.421Z,7.40
2018-01-15T10:59:25.868Z,7.40
2018-01-15T11:01:52.720Z,7.50
2018-01-15T11:04:19.354Z,7.50
2018-01-15T11:06:45.923Z,7.60
2018-01-15T11:09:12.487Z,7.70
2018-01-15T11:11:39.027Z,7.80
2018-01-15T11:14:06.883Z,7.80
2018-01-15T11:16:33.330Z,7.90
2018-01-15T11:18:59.924Z,7.90
2018-01-15T11:21:26.661Z,7.80
2018-01-15T11:23:53.258Z,7.80
2018-01-15T11:26:19.800Z,7.90
2018-01-15T11:28:46.615Z,7.90
2018-01-15T11:31:13.129Z,8.00
2018-01-15T11:33:39.967Z,8.00
2018-01-15T11:36:07.074Z,8.10
2018-01-15T11:38:33.831Z,8.00
2018-01-15T11:41:01.898Z,7.80
2018-01-15T11:43:29.229Z,7.70
2018-01-15T11:45:56.534Z,7.70
2018-01-15T11:48:23.239Z,7.60
2018-01-15T11:50:50.901Z,7.70
2018-01-15T11:53:17.521Z,7.70
2018-01-15T11:55:44.098Z,7.70
2018-01-15T11:58:11.569Z,7.60
2018-01-15T12:00:38.475Z,7.60
2018-01-15T12:03:05.706Z,7.60
2018-01-15T12:05:32.335Z,7.60
2018-01-15T12:07:58.862Z,7.70
2018-01-15T12:10:26.023Z,7.60
2018-01-15T12:12:52.593Z,7.50
2018-01-15T12:15:19.129Z,7.60
2018-01-15T12:17:45.648Z,7.60
2018-01-15T12:20:13.732Z,7.70
2018-01-15T12:22:41.773Z,7.60
2018-01-15T12:25:08.990Z,7.60
2018-01-15T12:27:37.305Z,7.60
2018-01-15T12:30:04.579Z,7.60
2018-01-15T12:32:31.153Z,7.70
2018-01-15T12:34:58.406Z,7.70
2018-01-15T12:37:24.913Z,7.70
2018-01-15T12:39:51.471Z,7.80
2018-01-15T12:42:17.958Z,7.90
2018-01-15T12:44:44.577Z,7.90
2018-01-15T12:47:12.828Z,7.90
2018-01-15T12:49:42.742Z,7.90
2018-01-15T12:52:10.861Z,7.90
2018-01-15T12:54:39.843Z,7.80
2018-01-15T12:57:08.018Z,7.70
2018-01-15T12:59:35.532Z,7.70
2018-01-15T13:02:02.304Z,7.70
2018-01-15T13:04:30.209Z,7.70
2018-01-15T13:06:56.782Z,7.70
2018-01-15T13:09:23.936Z,7.70
2018-01-15T13:11:50.791Z,7.60
2018-01-15T13:14:17.406Z,7.50
2018-01-15T13:16:44.345Z,7.30
2018-01-15T13:19:12.131Z,7.00
2018-01-15T13:21:39.487Z,7.00
2018-01-15T13:24:06.692Z,7.00
2018-01-15T13:26:33.262Z,6.90
2018-01-15T13:29:00.465Z,6.70
2018-01-15T13:31:27.416Z,6.70
2018-01-15T13:33:55.548Z,6.50
2018-01-15T13:36:22.202Z,6.70
2018-01-15T13:38:49.417Z,6.60
2018-01-15T13:41:16.001Z,6.60
2018-01-15T13:43:42.660Z,6.70
2018-01-15T13:46:09.619Z,6.80
2018-01-15T13:48:36.961Z,6.90
2018-01-15T13:51:03.843Z,6.80
2018-01-15T13:53:31.110Z,7.10
2018-01-15T13:55:57.668Z,7.00
2018-01-15T13:58:24.304Z,7.10
2018-01-15T14:00:50.909Z,7.10
2018-01-15T14:03:18.319Z,7.20
2018-01-15T14:05:44.879Z,7.10
2018-01-15T14:08:11.455Z,7.00
2018-01-15T14:10:38.952Z,7.20
2018-01-15T14:13:06.525Z,7.20
2018-01-15T14:15:33.194Z,7.20
2018-01-15T14:18:00.902Z,7.30
2018-01-15T14:20:28.245Z,7.30
2018-01-15T14:22:54.826Z,7.30
2018-01-15T14:25:21.525Z,7.20
2018-01-15T14:27:51.714Z,7.20
2018-01-15T14:30:19.034Z,6.60
2018-01-15T14:32:45.501Z,7.20
2018-01-15T14:35:12.211Z,7.30
2018-01-15T14:37:39.516Z,7.20
2018-01-15T14:40:06.950Z,7.10
2018-01-15T14:42:33.530Z,7.80
2018-01-15T14:45:00.162Z,7.10
2018-01-15T14:47:29.919Z,7.10
2018-01-15T14:49:57.241Z,7.10
2018-01-15T14:52:23.907Z,7.10
2018-01-15T14:54:51.091Z,7.10
2018-01-15T14:57:19.854Z,7.00
2018-01-15T14:59:48.463Z,7.00
2018-01-15T15:02:15.864Z,6.90
2018-01-15T15:04:42.481Z,6.80
2018-01-15T15:07:12.644Z,6.70
2018-01-15T15:09:39.489Z,6.80
2018-01-15T15:12:06.472Z,6.80
2018-01-15T15:14:34.398Z,6.70
2018-01-15T15:17:01.613Z,6.70
2018-01-15T15:19:28.290Z,6.70
2018-01-15T15:21:54.983Z,6.60
2018-01-15T15:24:22.061Z,6.50
2018-01-15T15:26:48.605Z,6.50
2018-01-15T15:29:15.218Z,6.50
2018-01-15T15:31:41.707Z,6.50
2018-01-15T15:34:09.450Z,6.60
2018-01-15T15:36:36.870Z,6.60
2018-01-15T15:39:04.851Z,6.80
2018-01-15T15:41:32.283Z,6.70
2018-01-15T15:43:59.303Z,6.80
2018-01-15T15:46:26.015Z,6.80
2018-01-15T15:48:53.183Z,7.20
2018-01-15T15:51:20.185Z,7.00
2018-01-15T15:53:47.414Z,7.00
2018-01-15T15:56:14.770Z,7.00
2018-01-15T15:58:42.661Z,7.10
2018-01-15T16:01:10.249Z,7.10
2018-01-15T16:03:39.492Z,7.10
2018-01-15T16:06:07.382Z,7.20
2018-01-15T16:08:33.945Z,7.20
2018-01-15T16:11:00.540Z,7.10
2018-01-15T16:13:27.115Z,7.10
2018-01-15T16:15:53.718Z,6.70
2018-01-15T16:18:20.357Z,7.00
2018-01-15T16:20:48.605Z,6.60
2018-01-15T16:23:15.088Z,6.60
2018-01-15T16:25:41.537Z,6.50
2018-01-15T16:28:08.502Z,6.30
2018-01-15T16:30:35.013Z,6.30
2018-01-15T16:33:01.566Z,6.20
2018-01-15T16:35:28.029Z,6.10
2018-01-15T16:37:54.486Z,6.00
2018-01-15T16:40:20.923Z,6.00
2018-01-15T16:42:47.370Z,5.90
2018-01-15T16:45:13.943Z,5.80
2018-01-15T16:47:40.531Z,5.90
2018-01-15T16:50:14.290Z,5.80
2018-01-15T16:52:41.540Z,5.80
2018-01-15T16:55:08.604Z,5.70
2018-01-15T16:57:35.197Z,5.70
2018-01-15T17:00:02.717Z,5.60
2018-01-15T17:02:29.282Z,5.60
2018-01-15T17:04:56.434Z,5.50
2018-01-15T17:07:22.841Z,5.50
2018-01-15T17:09:49.314Z,5.60
2018-01-15T17:12:17.297Z,5.50
2018-01-15T17:14:43.690Z,5.50
2018-01-15T17:17:10.793Z,5.60
2018-01-15T17:19:38.130Z,5.60
2018-01-15T17:22:05.097Z,5.60
2018-01-15T17:24:31.578Z,5.60
2018-01-15T17:26:58.088Z,5.60
2018-01-15T17:29:24.717Z,5.60
2018-01-15T17:31:51.914Z,5.50
2018-01-15T17:34:18.337Z,5.50
2018-01-15T17:36:45.121Z,5.40
2018-01-15T17:39:11.673Z,5.40
2018-01-15T17:41:38.118Z,5.40
2018-01-15T17:44:05.277Z,5.30
2018-01-15T17:46:31.924Z,5.40
2018-01-15T17:48:58.383Z,5.40
2018-01-15T17:51:24.848Z,5.40
2018-01-15T17:53:52.198Z,5.40
2018-01-15T17:56:18.628Z,5.40
2018-01-15T17:58:45.086Z,5.40
2018-01-15T18:01:12.437Z,5.30
2018-01-15T18:03:38.854Z,5.20
2018-01-15T18:06:05.944Z,5.30
2018-01-15T18:08:32.426Z,5.30
2018-01-15T18:10:59.647Z,5.30
2018-01-15T18:13:26.298Z,5.30
2018-01-15T18:15:52.757Z,5.40
2018-01-15T18:18:19.177Z,5.40
2018-01-15T18:20:45.610Z,5.40
2018-01-15T18:23:12.073Z,5.40
2018-01-15T18:25:38.614Z,5.40
2018-01-15T18:28:05.690Z,5.50
2018-01-15T18:30:33.673Z,5.60
2018-01-15T18:33:00.083Z,5.60
2018-01-15T18:35:26.768Z,5.70
2018-01-15T18:37:53.215Z,5.50
2018-01-15T18:40:19.766Z,5.70
2018-01-15T18:42:46.354Z,5.70
2018-01-15T18:45:12.865Z,5.70
2018-01-15T18:47:39.298Z,5.80
2018-01-15T18:50:06.467Z,5.80
2018-01-15T18:52:33.007Z,5.90
2018-01-15T18:54:59.578Z,5.90
2018-01-15T18:57:25.987Z,5.90
2018-01-15T18:59:52.406Z,5.90
2018-01-15T19:02:19.270Z,5.80
2018-01-15T19:04:45.778Z,5.80
2018-01-15T19:07:12.985Z,5.90
2018-01-15T19:09:39.478Z,5.90
2018-01-15T19:12:06.518Z,6.00
2018-01-15T19:14:33.790Z,6.10
2018-01-15T19:17:00.300Z,5.90
2018-01-15T19:19:26.749Z,6.10
2018-01-15T19:21:53.231Z,6.10
2018-01-15T19:24:19.993Z,6.20
2018-01-15T19:26:46.796Z,6.20
2018-01-15T19:29:13.297Z,6.20
2018-01-15T19:31:40.572Z,6.20
2018-01-15T19:34:07.705Z,6.20
2018-01-15T19:36:40.216Z,6.20
2018-01-15T19:39:09.651Z,6.40
2018-01-15T19:41:36.192Z,6.30
2018-01-15T19:44:09.972Z,6.50
2018-01-15T19:46:44.398Z,6.40
2018-01-15T19:49:17.392Z,6.50
2018-01-15T19:51:50.504Z,6.50
2018-01-15T19:54:23.499Z,6.60
2018-01-15T19:56:56.822Z,6.60
2018-01-15T19:59:29.364Z,6.50
2018-01-15T20:02:02.086Z,6.60
2018-01-15T20:04:34.746Z,6.50
2018-01-15T20:07:07.571Z,6.40
2018-01-15T20:09:40.333Z,6.40
2018-01-15T20:12:07.531Z,6.50
2018-01-15T20:14:34.774Z,6.50
2018-01-15T20:17:01.303Z,6.50
2018-01-15T20:19:28.590Z,6.60
2018-01-15T20:21:55.048Z,6.60
2018-01-15T20:24:21.533Z,6.50
2018-01-15T20:26:48.070Z,6.40
2018-01-15T20:29:14.496Z,5.90
2018-01-15T20:31:42.501Z,6.30
2018-01-15T20:34:10.413Z,6.20
2018-01-15T20:36:36.934Z,6.20
2018-01-15T20:39:04.191Z,6.10
2018-01-15T20:41:30.661Z,6.10
2018-01-15T20:43:57.095Z,6.10
2018-01-15T20:46:23.901Z,6.10
2018-01-15T20:48:51.247Z,6.10
2018-01-15T20:51:17.711Z,6.10
2018-01-15T20:53:44.170Z,6.20
2018-01-15T20:56:11.218Z,6.20
2018-01-15T20:58:38.660Z,6.20
2018-01-15T21:01:06.676Z,6.30
2018-01-15T21:03:33.984Z,6.20
2018-01-15T21:06:00.502Z,6.20
2018-01-15T21:08:27.817Z,6.20
2018-01-15T21:10:54.610Z,5.80
2018-01-15T21:13:21.260Z,6.30
2018-01-15T21:15:47.677Z,6.30
2018-01-15T21:18:14.159Z,6.40
2018-01-15T21:20:40.789Z,6.50
2018-01-15T21:23:07.858Z,6.60
2018-01-15T21:25:35.098Z,6.70
2018-01-15T21:28:02.176Z,6.60
2018-01-15T21:30:28.768Z,6.70
2018-01-15T21:32:55.259Z,6.70
2018-01-15T21:35:21.709Z,6.70
2018-01-15T21:37:48.234Z,6.70
2018-01-15T21:40:14.714Z,6.70
2018-01-15T21:42:41.193Z,6.70
2018-01-15T21:45:09.168Z,6.70
2018-01-15T21:47:35.835Z,6.70
2018-01-15T21:50:02.956Z,6.80
2018-01-15T21:52:30.185Z,6.80
2018-01-15T21:54:56.733Z,6.70
2018-01-15T21:57:23.199Z,6.70
2018-01-15T21:59:50.415Z,6.70
2018-01-15T22:02:16.893Z,6.70
2018-01-15T22:04:43.403Z,6.70
2018-01-15T22:07:09.878Z,6.70
2018-01-15T22:09:36.340Z,6.70
2018-01-15T22:12:03.912Z,6.60
2018-01-15T22:14:31.125Z,6.50
2018-01-15T22:16:57.653Z,6.50
2018-01-15T22:19:24.843Z,6.40
2018-01-15T22:21:51.285Z,6.40
2018-01-15T22:24:18.494Z,6.30
2018-01-15T22:26:44.940Z,6.20
2018-01-15T22:29:11.382Z,6.20
2018-01-15T22:31:38.149Z,6.20
2018-01-15T22:34:05.298Z,6.10
2018-01-15T22:36:31.780Z,6.10
2018-01-15T22:38:59.077Z,5.90
2018-01-15T22:41:25.864Z,5.90
2018-01-15T22:43:52.357Z,5.90
2018-01-15T22:46:18.847Z,5.90
2018-01-15T22:48:45.301Z,5.90
2018-01-15T22:51:11.753Z,5.90
2018-01-15T22:53:38.934Z,5.80
2018-01-15T22:56:05.588Z,5.80
2018-01-15T22:58:32.003Z,5.80
2018-01-15T23:00:58.813Z,5.70
2018-01-15T23:03:25.260Z,5.70
2018-01-15T23:05:52.466Z,5.80
2018-01-15T23:08:18.898Z,5.80
2018-01-15T23:10:46.547Z,5.90
2018-01-15T23:13:13.747Z,6.00
2018-01-15T23:15:40.961Z,6.10
2018-01-15T23:18:08.688Z,6.10
2018-01-15T23:20:35.122Z,6.10
2018-01-15T23:23:01.556Z,6.10
2018-01-15T23:25:28.021Z,6.10
2018-01-15T23:27:54.568Z,6.00
2018-01-15T23:30:21.000Z,6.00
2018-01-15T23:32:47.494Z,6.00
2018-01-15T23:35:13.926Z,5.90
2018-01-15T23:37:40.361Z,5.90
2018-01-15T23:40:06.817Z,5.80
2018-01-15T23:42:34.039Z,5.80
2018-01-15T23:45:00.474Z,5.80
2018-01-15T23:47:27.255Z,5.80
2018-01-15T23:49:53.774Z,5.70
2018-01-15T23:52:20.213Z,5.70
2018-01-15T23:54:46.742Z,5.70
2018-01-15T23:57:13.743Z,5.60
2018-01-15T23:59:40.305Z,5.60
